sensor_id;sensor_type;location;lat;lon;timestamp;P1;durP1;ratioP1;P2;durP2;ratioP2
21886;SDS011;11108;49.988;8.182;2023-03-04T00:01:42;6.43;;;4.73;;
21886;SDS011;11108;49.988;8.182;2023-03-04T00:04:07;6.63;;;5.00;;
21886;SDS011;11108;49.988;8.182;2023-03-04T00:06:32;6.37;;;5.47;;
21886;SDS011;11108;49.988;8.182;2023-03-04T00:08:57;5.47;;;4.90;;
21886;SDS011;11108;49.988;8.182;2023-03-04T00:11:23;5.40;;;4.90;;
21886;SDS011;11108;49.988;8.182;2023-03-04T00:13:48;6.70;;;5.00;;
21886;SDS011;11108;49.988;8.182;2023-03-04T00:16:13;5.03;;;4.57;;
21886;SDS011;11108;49.988;8.182;2023-03-04T00:18:39;6.00;;;5.40;;
21886;SDS011;11108;49.988;8.182;2023-03-04T00:21:04;6.23;;;5.30;;
21886;SDS011;11108;49.988;8.182;2023-03-04T00:23:29;6.07;;;4.93;;
21886;SDS011;11108;49.988;8.182;2023-03-04T00:25:55;5.90;;;4.77;;
21886;SDS011;11108;49.988;8.182;2023-03-04T00:28:20;7.27;;;5.93;;
21886;SDS011;11108;49.988;8.182;2023-03-04T00:30:45;6.90;;;5.30;;
21886;SDS011;11108;49.988;8.182;2023-03-04T00:33:10;6.30;;;4.80;;
21886;SDS011;11108;49.988;8.182;2023-03-04T00:35:36;6.40;;;5.40;;
21886;SDS011;11108;49.988;8.182;2023-03-04T00:38:01;5.50;;;5.00;;
21886;SDS011;11108;49.988;8.182;2023-03-04T00:40:26;6.43;;;5.83;;
21886;SDS011;11108;49.988;8.182;2023-03-04T00:42:51;5.30;;;4.80;;
21886;SDS011;11108;49.988;8.182;2023-03-04T00:45:17;5.97;;;5.37;;
21886;SDS011;11108;49.988;8.182;2023-03-04T00:47:42;5.87;;;5.37;;
21886;SDS011;11108;49.988;8.182;2023-03-04T00:50:07;5.90;;;5.30;;
21886;SDS011;11108;49.988;8.182;2023-03-04T00:52:32;7.37;;;5.70;;
21886;SDS011;11108;49.988;8.182;2023-03-04T00:54:58;6.33;;;5.13;;
21886;SDS011;11108;49.988;8.182;2023-03-04T00:57:23;5.17;;;4.73;;
21886;SDS011;11108;49.988;8.182;2023-03-04T00:59:48;5.20;;;4.80;;
21886;SDS011;11108;49.988;8.182;2023-03-04T01:02:13;6.30;;;5.67;;
21886;SDS011;11108;49.988;8.182;2023-03-04T01:04:38;5.97;;;5.47;;
21886;SDS011;11108;49.988;8.182;2023-03-04T01:07:05;5.83;;;5.23;;
21886;SDS011;11108;49.988;8.182;2023-03-04T01:09:30;5.73;;;5.13;;
21886;SDS011;11108;49.988;8.182;2023-03-04T01:11:56;5.30;;;4.80;;
21886;SDS011;11108;49.988;8.182;2023-03-04T01:14:21;6.00;;;5.40;;
21886;SDS011;11108;49.988;8.182;2023-03-04T01:16:47;6.80;;;5.03;;
21886;SDS011;11108;49.988;8.182;2023-03-04T01:19:12;5.77;;;5.17;;
21886;SDS011;11108;49.988;8.182;2023-03-04T01:21:37;6.37;;;5.23;;
21886;SDS011;11108;49.988;8.182;2023-03-04T01:24:02;6.37;;;5.43;;
21886;SDS011;11108;49.988;8.182;2023-03-04T01:26:27;5.60;;;4.90;;
21886;SDS011;11108;49.988;8.182;2023-03-04T01:28:53;7.03;;;5.33;;
21886;SDS011;11108;49.988;8.182;2023-03-04T01:31:18;5.90;;;5.30;;
21886;SDS011;11108;49.988;8.182;2023-03-04T01:33:43;5.27;;;4.80;;
21886;SDS011;11108;49.988;8.182;2023-03-04T01:36:08;5.73;;;5.23;;
21886;SDS011;11108;49.988;8.182;2023-03-04T01:38:33;5.53;;;5.03;;
21886;SDS011;11108;49.988;8.182;2023-03-04T01:40:59;5.70;;;5.20;;
21886;SDS011;11108;49.988;8.182;2023-03-04T01:43:26;6.30;;;5.17;;
21886;SDS011;11108;49.988;8.182;2023-03-04T01:45:51;5.90;;;5.40;;
21886;SDS011;11108;49.988;8.182;2023-03-04T01:48:17;6.07;;;5.47;;
21886;SDS011;11108;49.988;8.182;2023-03-04T01:50:44;5.10;;;4.60;;
21886;SDS011;11108;49.988;8.182;2023-03-04T01:55:38;5.37;;;4.83;;
21886;SDS011;11108;49.988;8.182;2023-03-04T01:58:04;5.70;;;4.83;;
21886;SDS011;11108;49.988;8.182;2023-03-04T02:00:30;5.73;;;5.23;;
21886;SDS011;11108;49.988;8.182;2023-03-04T02:03:17;5.57;;;5.07;;
21886;SDS011;11108;49.988;8.182;2023-03-04T02:05:44;5.47;;;4.97;;
21886;SDS011;11108;49.988;8.182;2023-03-04T02:08:10;5.63;;;5.10;;
21886;SDS011;11108;49.988;8.182;2023-03-04T02:10:36;5.87;;;5.30;;
21886;SDS011;11108;49.988;8.182;2023-03-04T02:13:01;6.30;;;5.70;;
21886;SDS011;11108;49.988;8.182;2023-03-04T02:15:28;5.80;;;5.30;;
21886;SDS011;11108;49.988;8.182;2023-03-04T02:17:53;5.70;;;5.20;;
21886;SDS011;11108;49.988;8.182;2023-03-04T02:20:40;5.33;;;4.83;;
21886;SDS011;11108;49.988;8.182;2023-03-04T02:26:06;6.70;;;4.87;;
21886;SDS011;11108;49.988;8.182;2023-03-04T02:28:32;6.67;;;5.17;;
21886;SDS011;11108;49.988;8.182;2023-03-04T02:30:57;5.67;;;5.07;;
21886;SDS011;11108;49.988;8.182;2023-03-04T02:33:22;5.17;;;4.73;;
21886;SDS011;11108;49.988;8.182;2023-03-04T02:35:47;5.83;;;5.07;;
21886;SDS011;11108;49.988;8.182;2023-03-04T02:38:13;5.00;;;4.60;;
21886;SDS011;11108;49.988;8.182;2023-03-04T02:40:38;5.40;;;4.90;;
21886;SDS011;11108;49.988;8.182;2023-03-04T02:43:04;5.00;;;4.50;;
21886;SDS011;11108;49.988;8.182;2023-03-04T02:45:37;4.27;;;3.97;;
21886;SDS011;11108;49.988;8.182;2023-03-04T02:48:03;4.97;;;4.57;;
21886;SDS011;11108;49.988;8.182;2023-03-04T02:50:29;5.47;;;4.97;;
21886;SDS011;11108;49.988;8.182;2023-03-04T02:52:55;4.77;;;4.37;;
21886;SDS011;11108;49.988;8.182;2023-03-04T02:55:20;6.20;;;4.80;;
21886;SDS011;11108;49.988;8.182;2023-03-04T02:57:45;6.60;;;6.00;;
21886;SDS011;11108;49.988;8.182;2023-03-04T03:00:11;5.70;;;5.20;;
21886;SDS011;11108;49.988;8.182;2023-03-04T03:02:36;4.97;;;4.47;;
21886;SDS011;11108;49.988;8.182;2023-03-04T03:05:01;4.97;;;4.47;;
21886;SDS011;11108;49.988;8.182;2023-03-04T03:07:27;5.40;;;4.77;;
21886;SDS011;11108;49.988;8.182;2023-03-04T03:09:52;5.90;;;5.40;;
21886;SDS011;11108;49.988;8.182;2023-03-04T03:12:17;5.47;;;4.97;;
21886;SDS011;11108;49.988;8.182;2023-03-04T03:14:42;4.87;;;4.43;;
21886;SDS011;11108;49.988;8.182;2023-03-04T03:17:07;5.77;;;5.00;;
21886;SDS011;11108;49.988;8.182;2023-03-04T03:19:33;5.23;;;4.73;;
21886;SDS011;11108;49.988;8.182;2023-03-04T03:21:58;5.17;;;4.67;;
21886;SDS011;11108;49.988;8.182;2023-03-04T03:24:23;5.30;;;4.77;;
21886;SDS011;11108;49.988;8.182;2023-03-04T03:26:48;5.87;;;5.07;;
21886;SDS011;11108;49.988;8.182;2023-03-04T03:29:13;5.13;;;4.67;;
21886;SDS011;11108;49.988;8.182;2023-03-04T03:31:39;4.93;;;4.47;;
21886;SDS011;11108;49.988;8.182;2023-03-04T03:34:04;5.23;;;4.73;;
21886;SDS011;11108;49.988;8.182;2023-03-04T03:36:29;5.30;;;4.83;;
21886;SDS011;11108;49.988;8.182;2023-03-04T03:38:54;5.83;;;4.87;;
21886;SDS011;11108;49.988;8.182;2023-03-04T03:41:19;5.00;;;4.60;;
21886;SDS011;11108;49.988;8.182;2023-03-04T03:43:45;5.00;;;4.50;;
21886;SDS011;11108;49.988;8.182;2023-03-04T03:46:10;6.40;;;4.57;;
21886;SDS011;11108;49.988;8.182;2023-03-04T03:48:35;4.97;;;4.53;;
21886;SDS011;11108;49.988;8.182;2023-03-04T03:51:00;5.23;;;4.83;;
21886;SDS011;11108;49.988;8.182;2023-03-04T03:53:26;4.80;;;4.40;;
21886;SDS011;11108;49.988;8.182;2023-03-04T03:55:51;5.70;;;5.03;;
21886;SDS011;11108;49.988;8.182;2023-03-04T03:58:16;5.30;;;4.77;;
21886;SDS011;11108;49.988;8.182;2023-03-04T04:00:41;4.50;;;4.10;;
21886;SDS011;11108;49.988;8.182;2023-03-04T04:03:06;5.20;;;4.70;;
21886;SDS011;11108;49.988;8.182;2023-03-04T04:05:31;5.27;;;4.63;;
21886;SDS011;11108;49.988;8.182;2023-03-04T04:07:57;5.43;;;4.93;;
21886;SDS011;11108;49.988;8.182;2023-03-04T04:10:22;4.87;;;4.47;;
21886;SDS011;11108;49.988;8.182;2023-03-04T04:12:47;5.13;;;4.63;;
21886;SDS011;11108;49.988;8.182;2023-03-04T04:15:12;5.17;;;4.63;;
21886;SDS011;11108;49.988;8.182;2023-03-04T04:17:38;5.77;;;4.70;;
21886;SDS011;11108;49.988;8.182;2023-03-04T04:20:03;5.00;;;4.60;;
21886;SDS011;11108;49.988;8.182;2023-03-04T04:22:29;5.43;;;4.90;;
21886;SDS011;11108;49.988;8.182;2023-03-04T04:24:54;4.40;;;4.00;;
21886;SDS011;11108;49.988;8.182;2023-03-04T04:27:19;4.70;;;4.30;;
21886;SDS011;11108;49.988;8.182;2023-03-04T04:29:44;4.83;;;4.37;;
21886;SDS011;11108;49.988;8.182;2023-03-04T04:32:10;5.20;;;4.70;;
21886;SDS011;11108;49.988;8.182;2023-03-04T04:34:37;4.80;;;4.30;;
21886;SDS011;11108;49.988;8.182;2023-03-04T04:37:02;4.87;;;4.40;;
21886;SDS011;11108;49.988;8.182;2023-03-04T04:39:27;6.87;;;5.03;;
21886;SDS011;11108;49.988;8.182;2023-03-04T04:41:52;5.13;;;4.63;;
21886;SDS011;11108;49.988;8.182;2023-03-04T04:44:18;5.13;;;4.63;;
21886;SDS011;11108;49.988;8.182;2023-03-04T04:46:43;4.50;;;4.10;;
21886;SDS011;11108;49.988;8.182;2023-03-04T04:49:08;4.87;;;4.47;;
21886;SDS011;11108;49.988;8.182;2023-03-04T04:51:34;4.67;;;4.23;;
21886;SDS011;11108;49.988;8.182;2023-03-04T04:53:59;4.90;;;4.50;;
21886;SDS011;11108;49.988;8.182;2023-03-04T04:56:25;5.37;;;4.87;;
21886;SDS011;11108;49.988;8.182;2023-03-04T04:58:58;4.97;;;4.50;;
21886;SDS011;11108;49.988;8.182;2023-03-04T05:01:24;4.83;;;4.43;;
21886;SDS011;11108;49.988;8.182;2023-03-04T05:03:49;6.10;;;5.50;;
21886;SDS011;11108;49.988;8.182;2023-03-04T05:06:17;5.13;;;4.63;;
21886;SDS011;11108;49.988;8.182;2023-03-04T05:08:43;4.87;;;4.47;;
21886;SDS011;11108;49.988;8.182;2023-03-04T05:11:08;4.70;;;4.30;;
21886;SDS011;11108;49.988;8.182;2023-03-04T05:13:34;5.30;;;4.80;;
21886;SDS011;11108;49.988;8.182;2023-03-04T05:16:00;5.60;;;5.10;;
21886;SDS011;11108;49.988;8.182;2023-03-04T05:18:25;5.00;;;4.57;;
21886;SDS011;11108;49.988;8.182;2023-03-04T05:20:54;5.03;;;4.53;;
21886;SDS011;11108;49.988;8.182;2023-03-04T05:23:20;5.00;;;4.60;;
21886;SDS011;11108;49.988;8.182;2023-03-04T05:25:46;5.37;;;4.87;;
21886;SDS011;11108;49.988;8.182;2023-03-04T05:28:11;4.93;;;4.47;;
21886;SDS011;11108;49.988;8.182;2023-03-04T05:30:40;4.90;;;4.50;;
21886;SDS011;11108;49.988;8.182;2023-03-04T05:33:06;4.50;;;4.10;;
21886;SDS011;11108;49.988;8.182;2023-03-04T05:35:33;7.13;;;4.67;;
21886;SDS011;11108;49.988;8.182;2023-03-04T05:37:58;4.50;;;4.10;;
21886;SDS011;11108;49.988;8.182;2023-03-04T05:40:23;4.97;;;4.57;;
21886;SDS011;11108;49.988;8.182;2023-03-04T05:42:49;4.67;;;4.27;;
21886;SDS011;11108;49.988;8.182;2023-03-04T05:45:14;4.97;;;4.57;;
21886;SDS011;11108;49.988;8.182;2023-03-04T05:47:40;5.73;;;5.20;;
21886;SDS011;11108;49.988;8.182;2023-03-04T05:50:05;4.83;;;4.43;;
21886;SDS011;11108;49.988;8.182;2023-03-04T05:52:30;5.20;;;4.80;;
21886;SDS011;11108;49.988;8.182;2023-03-04T05:54:56;5.37;;;4.87;;
21886;SDS011;11108;49.988;8.182;2023-03-04T05:57:21;4.87;;;4.47;;
21886;SDS011;11108;49.988;8.182;2023-03-04T05:59:46;5.13;;;4.70;;
21886;SDS011;11108;49.988;8.182;2023-03-04T06:02:11;4.67;;;4.27;;
21886;SDS011;11108;49.988;8.182;2023-03-04T06:04:36;5.17;;;4.67;;
21886;SDS011;11108;49.988;8.182;2023-03-04T06:07:02;4.73;;;4.33;;
21886;SDS011;11108;49.988;8.182;2023-03-04T06:09:27;4.90;;;4.50;;
21886;SDS011;11108;49.988;8.182;2023-03-04T06:11:52;5.07;;;4.67;;
21886;SDS011;11108;49.988;8.182;2023-03-04T06:14:17;4.83;;;4.43;;
21886;SDS011;11108;49.988;8.182;2023-03-04T06:16:42;4.93;;;4.50;;
21886;SDS011;11108;49.988;8.182;2023-03-04T06:19:08;4.50;;;4.10;;
21886;SDS011;11108;49.988;8.182;2023-03-04T06:21:33;4.73;;;4.23;;
21886;SDS011;11108;49.988;8.182;2023-03-04T06:23:58;4.90;;;4.50;;
21886;SDS011;11108;49.988;8.182;2023-03-04T06:26:23;5.00;;;4.47;;
21886;SDS011;11108;49.988;8.182;2023-03-04T06:28:48;4.90;;;4.50;;
21886;SDS011;11108;49.988;8.182;2023-03-04T06:31:13;4.47;;;4.17;;
21886;SDS011;11108;49.988;8.182;2023-03-04T06:33:39;4.60;;;4.30;;
21886;SDS011;11108;49.988;8.182;2023-03-04T06:36:04;4.50;;;4.10;;
21886;SDS011;11108;49.988;8.182;2023-03-04T06:38:29;4.63;;;3.90;;
21886;SDS011;11108;49.988;8.182;2023-03-04T06:40:54;5.00;;;4.60;;
21886;SDS011;11108;49.988;8.182;2023-03-04T06:43:20;4.87;;;4.40;;
21886;SDS011;11108;49.988;8.182;2023-03-04T06:45:45;4.43;;;4.03;;
21886;SDS011;11108;49.988;8.182;2023-03-04T06:48:11;4.60;;;4.10;;
21886;SDS011;11108;49.988;8.182;2023-03-04T06:50:36;4.83;;;4.43;;
21886;SDS011;11108;49.988;8.182;2023-03-04T06:53:03;3.90;;;3.60;;
21886;SDS011;11108;49.988;8.182;2023-03-04T06:55:28;4.50;;;4.10;;
21886;SDS011;11108;49.988;8.182;2023-03-04T06:57:53;4.10;;;3.70;;
21886;SDS011;11108;49.988;8.182;2023-03-04T07:00:18;5.37;;;4.40;;
21886;SDS011;11108;49.988;8.182;2023-03-04T07:02:44;4.10;;;3.80;;
21886;SDS011;11108;49.988;8.182;2023-03-04T07:05:10;4.47;;;3.73;;
21886;SDS011;11108;49.988;8.182;2023-03-04T07:07:35;4.83;;;3.97;;
21886;SDS011;11108;49.988;8.182;2023-03-04T07:10:00;4.53;;;4.13;;
21886;SDS011;11108;49.988;8.182;2023-03-04T07:12:26;3.77;;;3.40;;
21886;SDS011;11108;49.988;8.182;2023-03-04T07:14:51;4.00;;;3.70;;
21886;SDS011;11108;49.988;8.182;2023-03-04T07:17:16;3.60;;;3.30;;
21886;SDS011;11108;49.988;8.182;2023-03-04T07:19:41;4.37;;;3.93;;
21886;SDS011;11108;49.988;8.182;2023-03-04T07:22:07;4.57;;;4.17;;
21886;SDS011;11108;49.988;8.182;2023-03-04T07:24:32;4.77;;;4.33;;
21886;SDS011;11108;49.988;8.182;2023-03-04T07:26:57;4.00;;;3.67;;
21886;SDS011;11108;49.988;8.182;2023-03-04T07:29:22;3.80;;;3.40;;
21886;SDS011;11108;49.988;8.182;2023-03-04T07:31:47;4.77;;;4.23;;
21886;SDS011;11108;49.988;8.182;2023-03-04T07:34:13;4.57;;;4.03;;
21886;SDS011;11108;49.988;8.182;2023-03-04T07:36:38;4.30;;;3.87;;
21886;SDS011;11108;49.988;8.182;2023-03-04T07:39:04;5.60;;;3.80;;
21886;SDS011;11108;49.988;8.182;2023-03-04T07:41:29;4.83;;;4.43;;
21886;SDS011;11108;49.988;8.182;2023-03-04T07:43:56;3.93;;;3.63;;
21886;SDS011;11108;49.988;8.182;2023-03-04T07:46:21;4.13;;;3.70;;
21886;SDS011;11108;49.988;8.182;2023-03-04T07:48:46;3.40;;;3.10;;
21886;SDS011;11108;49.988;8.182;2023-03-04T07:51:13;4.20;;;3.77;;
21886;SDS011;11108;49.988;8.182;2023-03-04T07:53:39;3.80;;;3.50;;
21886;SDS011;11108;49.988;8.182;2023-03-04T07:56:05;3.90;;;3.60;;
21886;SDS011;11108;49.988;8.182;2023-03-04T07:58:30;4.27;;;3.87;;
21886;SDS011;11108;49.988;8.182;2023-03-04T08:00:56;4.07;;;3.77;;
21886;SDS011;11108;49.988;8.182;2023-03-04T08:03:21;3.67;;;3.37;;
21886;SDS011;11108;49.988;8.182;2023-03-04T08:05:47;4.47;;;4.07;;
21886;SDS011;11108;49.988;8.182;2023-03-04T08:08:12;3.77;;;3.47;;
21886;SDS011;11108;49.988;8.182;2023-03-04T08:10:37;4.67;;;3.17;;
21886;SDS011;11108;49.988;8.182;2023-03-04T08:13:04;4.10;;;3.40;;
21886;SDS011;11108;49.988;8.182;2023-03-04T08:15:29;4.53;;;3.50;;
21886;SDS011;11108;49.988;8.182;2023-03-04T08:17:56;3.47;;;3.27;;
21886;SDS011;11108;49.988;8.182;2023-03-04T08:20:21;3.97;;;3.30;;
21886;SDS011;11108;49.988;8.182;2023-03-04T08:22:47;4.60;;;3.63;;
21886;SDS011;11108;49.988;8.182;2023-03-04T08:25:12;5.00;;;3.80;;
21886;SDS011;11108;49.988;8.182;2023-03-04T08:27:37;4.20;;;3.87;;
21886;SDS011;11108;49.988;8.182;2023-03-04T08:30:03;3.93;;;3.63;;
21886;SDS011;11108;49.988;8.182;2023-03-04T08:32:28;4.47;;;3.90;;
21886;SDS011;11108;49.988;8.182;2023-03-04T08:34:54;3.80;;;3.50;;
21886;SDS011;11108;49.988;8.182;2023-03-04T08:37:20;5.27;;;3.53;;
21886;SDS011;11108;49.988;8.182;2023-03-04T08:39:46;4.27;;;3.63;;
21886;SDS011;11108;49.988;8.182;2023-03-04T08:42:11;6.00;;;4.70;;
21886;SDS011;11108;49.988;8.182;2023-03-04T08:44:36;3.50;;;3.20;;
21886;SDS011;11108;49.988;8.182;2023-03-04T08:47:01;4.43;;;3.73;;
21886;SDS011;11108;49.988;8.182;2023-03-04T08:49:26;4.60;;;3.77;;
21886;SDS011;11108;49.988;8.182;2023-03-04T08:51:52;4.13;;;3.73;;
21886;SDS011;11108;49.988;8.182;2023-03-04T08:54:17;4.83;;;3.83;;
21886;SDS011;11108;49.988;8.182;2023-03-04T08:56:42;3.63;;;3.33;;
21886;SDS011;11108;49.988;8.182;2023-03-04T08:59:07;3.90;;;3.57;;
21886;SDS011;11108;49.988;8.182;2023-03-04T09:01:32;4.27;;;3.70;;
21886;SDS011;11108;49.988;8.182;2023-03-04T09:03:57;4.77;;;3.50;;
21886;SDS011;11108;49.988;8.182;2023-03-04T09:06:23;3.30;;;3.10;;
21886;SDS011;11108;49.988;8.182;2023-03-04T09:08:48;3.77;;;3.33;;
21886;SDS011;11108;49.988;8.182;2023-03-04T09:11:13;4.50;;;3.33;;
21886;SDS011;11108;49.988;8.182;2023-03-04T09:13:39;4.07;;;3.67;;
21886;SDS011;11108;49.988;8.182;2023-03-04T09:16:08;4.10;;;3.70;;
21886;SDS011;11108;49.988;8.182;2023-03-04T09:18:34;5.80;;;3.53;;
21886;SDS011;11108;49.988;8.182;2023-03-04T09:20:59;3.83;;;3.37;;
21886;SDS011;11108;49.988;8.182;2023-03-04T09:23:25;4.33;;;3.93;;
21886;SDS011;11108;49.988;8.182;2023-03-04T09:25:50;3.70;;;3.40;;
21886;SDS011;11108;49.988;8.182;2023-03-04T09:28:15;4.10;;;3.70;;
21886;SDS011;11108;49.988;8.182;2023-03-04T09:30:41;3.43;;;3.13;;
21886;SDS011;11108;49.988;8.182;2023-03-04T09:33:06;4.13;;;3.43;;
21886;SDS011;11108;49.988;8.182;2023-03-04T09:35:31;6.77;;;3.67;;
21886;SDS011;11108;49.988;8.182;2023-03-04T09:37:57;4.80;;;3.93;;
21886;SDS011;11108;49.988;8.182;2023-03-04T09:40:24;6.27;;;3.57;;
21886;SDS011;11108;49.988;8.182;2023-03-04T09:42:51;5.43;;;3.97;;
21886;SDS011;11108;49.988;8.182;2023-03-04T09:45:19;5.10;;;3.20;;
21886;SDS011;11108;49.988;8.182;2023-03-04T09:47:44;4.53;;;3.20;;
21886;SDS011;11108;49.988;8.182;2023-03-04T09:50:10;5.90;;;3.60;;
21886;SDS011;11108;49.988;8.182;2023-03-04T09:52:52;4.70;;;3.23;;
21886;SDS011;11108;49.988;8.182;2023-03-04T09:55:25;5.53;;;3.30;;
21886;SDS011;11108;49.988;8.182;2023-03-04T10:01:00;4.23;;;3.40;;
21886;SDS011;11108;49.988;8.182;2023-03-04T10:03:23;6.63;;;3.07;;
21886;SDS011;11108;49.988;8.182;2023-03-04T10:06:03;5.07;;;3.63;;
21886;SDS011;11108;49.988;8.182;2023-03-04T10:11:24;4.70;;;3.10;;
21886;SDS011;11108;49.988;8.182;2023-03-04T10:13:53;4.23;;;2.87;;
21886;SDS011;11108;49.988;8.182;2023-03-04T10:16:20;3.90;;;3.20;;
21886;SDS011;11108;49.988;8.182;2023-03-04T10:18:51;5.03;;;3.20;;
21886;SDS011;11108;49.988;8.182;2023-03-04T10:23:43;6.00;;;3.90;;
21886;SDS011;11108;49.988;8.182;2023-03-04T10:26:12;7.67;;;3.03;;
21886;SDS011;11108;49.988;8.182;2023-03-04T10:28:38;3.60;;;2.80;;
21886;SDS011;11108;49.988;8.182;2023-03-04T10:33:35;3.50;;;3.20;;
21886;SDS011;11108;49.988;8.182;2023-03-04T10:36:03;3.93;;;3.53;;
21886;SDS011;11108;49.988;8.182;2023-03-04T10:38:30;8.73;;;4.03;;
21886;SDS011;11108;49.988;8.182;2023-03-04T10:40:56;4.73;;;3.33;;
21886;SDS011;11108;49.988;8.182;2023-03-04T10:43:22;3.83;;;2.70;;
21886;SDS011;11108;49.988;8.182;2023-03-04T10:45:47;4.23;;;2.83;;
21886;SDS011;11108;49.988;8.182;2023-03-04T10:48:20;4.87;;;2.93;;
21886;SDS011;11108;49.988;8.182;2023-03-04T10:50:46;3.77;;;2.87;;
21886;SDS011;11108;49.988;8.182;2023-03-04T10:53:21;3.17;;;2.53;;
21886;SDS011;11108;49.988;8.182;2023-03-04T10:55:48;5.17;;;3.13;;
21886;SDS011;11108;49.988;8.182;2023-03-04T10:58:17;4.03;;;2.87;;
21886;SDS011;11108;49.988;8.182;2023-03-04T11:00:43;3.07;;;2.77;;
21886;SDS011;11108;49.988;8.182;2023-03-04T11:03:22;4.83;;;3.10;;
21886;SDS011;11108;49.988;8.182;2023-03-04T11:05:48;4.70;;;3.10;;
21886;SDS011;11108;49.988;8.182;2023-03-04T11:08:16;2.83;;;2.63;;
21886;SDS011;11108;49.988;8.182;2023-03-04T11:10:42;3.37;;;2.77;;
21886;SDS011;11108;49.988;8.182;2023-03-04T11:18:16;3.20;;;2.90;;
21886;SDS011;11108;49.988;8.182;2023-03-04T11:20:45;3.03;;;2.60;;
21886;SDS011;11108;49.988;8.182;2023-03-04T11:23:18;4.23;;;2.80;;
21886;SDS011;11108;49.988;8.182;2023-03-04T11:26:01;4.43;;;2.90;;
21886;SDS011;11108;49.988;8.182;2023-03-04T11:31:32;3.90;;;2.90;;
21886;SDS011;11108;49.988;8.182;2023-03-04T11:34:03;3.20;;;2.70;;
21886;SDS011;11108;49.988;8.182;2023-03-04T11:39:02;4.30;;;3.30;;
21886;SDS011;11108;49.988;8.182;2023-03-04T11:41:30;3.37;;;3.07;;
21886;SDS011;11108;49.988;8.182;2023-03-04T11:43:56;2.90;;;2.47;;
21886;SDS011;11108;49.988;8.182;2023-03-04T11:49:11;2.90;;;2.70;;
21886;SDS011;11108;49.988;8.182;2023-03-04T11:51:46;2.97;;;2.77;;
21886;SDS011;11108;49.988;8.182;2023-03-04T11:54:31;2.57;;;2.33;;
21886;SDS011;11108;49.988;8.182;2023-03-04T11:57:02;2.60;;;2.40;;
21886;SDS011;11108;49.988;8.182;2023-03-04T12:02:14;2.23;;;2.03;;
21886;SDS011;11108;49.988;8.182;2023-03-04T12:12:40;3.17;;;2.20;;
21886;SDS011;11108;49.988;8.182;2023-03-04T12:15:14;3.10;;;2.80;;
21886;SDS011;11108;49.988;8.182;2023-03-04T12:28:20;4.33;;;2.40;;
21886;SDS011;11108;49.988;8.182;2023-03-04T12:43:52;4.23;;;2.80;;
21886;SDS011;11108;49.988;8.182;2023-03-04T12:46:37;3.27;;;2.33;;
21886;SDS011;11108;49.988;8.182;2023-03-04T12:54:27;3.03;;;2.77;;
21886;SDS011;11108;49.988;8.182;2023-03-04T12:57:09;4.87;;;3.00;;
21886;SDS011;11108;49.988;8.182;2023-03-04T12:59:38;3.93;;;3.00;;
21886;SDS011;11108;49.988;8.182;2023-03-04T13:09:51;2.60;;;2.40;;
21886;SDS011;11108;49.988;8.182;2023-03-04T13:12:20;2.20;;;2.00;;
21886;SDS011;11108;49.988;8.182;2023-03-04T13:17:49;3.47;;;2.50;;
21886;SDS011;11108;49.988;8.182;2023-03-04T13:20:19;3.73;;;2.30;;
21886;SDS011;11108;49.988;8.182;2023-03-04T13:25:28;1.97;;;1.80;;
21886;SDS011;11108;49.988;8.182;2023-03-04T13:40:43;3.03;;;2.37;;
21886;SDS011;11108;49.988;8.182;2023-03-04T13:43:23;3.07;;;2.70;;
21886;SDS011;11108;49.988;8.182;2023-03-04T13:45:48;3.07;;;2.77;;
21886;SDS011;11108;49.988;8.182;2023-03-04T13:48:30;2.53;;;2.30;;
21886;SDS011;11108;49.988;8.182;2023-03-04T13:50:55;2.80;;;2.57;;
21886;SDS011;11108;49.988;8.182;2023-03-04T13:53:28;4.50;;;2.40;;
21886;SDS011;11108;49.988;8.182;2023-03-04T13:56:03;2.93;;;2.50;;
21886;SDS011;11108;49.988;8.182;2023-03-04T13:58:28;7.20;;;2.47;;
21886;SDS011;11108;49.988;8.182;2023-03-04T14:00:54;2.17;;;2.00;;
21886;SDS011;11108;49.988;8.182;2023-03-04T14:03:26;2.23;;;2.00;;
21886;SDS011;11108;49.988;8.182;2023-03-04T14:06:14;4.00;;;2.47;;
21886;SDS011;11108;49.988;8.182;2023-03-04T14:08:41;2.20;;;2.00;;
21886;SDS011;11108;49.988;8.182;2023-03-04T14:11:10;3.93;;;2.13;;
21886;SDS011;11108;49.988;8.182;2023-03-04T14:13:36;3.53;;;2.30;;
21886;SDS011;11108;49.988;8.182;2023-03-04T14:16:02;2.80;;;2.50;;
21886;SDS011;11108;49.988;8.182;2023-03-04T14:18:27;3.03;;;2.50;;
21886;SDS011;11108;49.988;8.182;2023-03-04T14:20:53;3.57;;;2.50;;
21886;SDS011;11108;49.988;8.182;2023-03-04T14:23:27;3.60;;;2.37;;
21886;SDS011;11108;49.988;8.182;2023-03-04T14:26:02;2.37;;;2.10;;
21886;SDS011;11108;49.988;8.182;2023-03-04T14:28:27;2.40;;;2.20;;
21886;SDS011;11108;49.988;8.182;2023-03-04T14:30:53;1.97;;;1.80;;
21886;SDS011;11108;49.988;8.182;2023-03-04T14:33:26;3.43;;;2.30;;
21886;SDS011;11108;49.988;8.182;2023-03-04T14:35:53;4.13;;;2.70;;
21886;SDS011;11108;49.988;8.182;2023-03-04T14:38:23;2.17;;;2.07;;
21886;SDS011;11108;49.988;8.182;2023-03-04T14:41:22;2.47;;;2.10;;
21886;SDS011;11108;49.988;8.182;2023-03-04T14:43:41;2.30;;;2.10;;
21886;SDS011;11108;49.988;8.182;2023-03-04T14:46:11;2.50;;;2.30;;
21886;SDS011;11108;49.988;8.182;2023-03-04T14:48:37;2.63;;;2.37;;
21886;SDS011;11108;49.988;8.182;2023-03-04T14:51:02;2.97;;;2.60;;
21886;SDS011;11108;49.988;8.182;2023-03-04T14:53:28;2.00;;;1.90;;
21886;SDS011;11108;49.988;8.182;2023-03-04T14:55:58;2.60;;;2.40;;
21886;SDS011;11108;49.988;8.182;2023-03-04T14:58:26;2.50;;;2.30;;
21886;SDS011;11108;49.988;8.182;2023-03-04T15:01:12;2.20;;;1.80;;
21886;SDS011;11108;49.988;8.182;2023-03-04T15:03:39;3.43;;;1.80;;
21886;SDS011;11108;49.988;8.182;2023-03-04T15:06:26;2.80;;;2.10;;
21886;SDS011;11108;49.988;8.182;2023-03-04T15:08:57;2.63;;;2.00;;
21886;SDS011;11108;49.988;8.182;2023-03-04T15:11:24;2.23;;;2.10;;
21886;SDS011;11108;49.988;8.182;2023-03-04T15:13:50;2.57;;;2.37;;
21886;SDS011;11108;49.988;8.182;2023-03-04T15:16:18;2.13;;;2.00;;
21886;SDS011;11108;49.988;8.182;2023-03-04T15:21:38;3.73;;;2.30;;
21886;SDS011;11108;49.988;8.182;2023-03-04T15:24:05;1.93;;;1.83;;
21886;SDS011;11108;49.988;8.182;2023-03-04T15:26:31;2.03;;;1.93;;
21886;SDS011;11108;49.988;8.182;2023-03-04T15:28:57;2.00;;;1.90;;
21886;SDS011;11108;49.988;8.182;2023-03-04T15:31:23;2.13;;;1.93;;
21886;SDS011;11108;49.988;8.182;2023-03-04T15:33:49;2.07;;;1.90;;
21886;SDS011;11108;49.988;8.182;2023-03-04T15:36:15;2.73;;;2.50;;
21886;SDS011;11108;49.988;8.182;2023-03-04T15:38:42;1.60;;;1.50;;
21886;SDS011;11108;49.988;8.182;2023-03-04T15:41:09;1.70;;;1.60;;
21886;SDS011;11108;49.988;8.182;2023-03-04T15:43:35;2.57;;;2.23;;
21886;SDS011;11108;49.988;8.182;2023-03-04T15:46:00;2.97;;;2.60;;
21886;SDS011;11108;49.988;8.182;2023-03-04T15:48:27;2.57;;;2.10;;
21886;SDS011;11108;49.988;8.182;2023-03-04T15:50:59;1.90;;;1.80;;
21886;SDS011;11108;49.988;8.182;2023-03-04T15:55:56;3.40;;;2.20;;
21886;SDS011;11108;49.988;8.182;2023-03-04T15:58:22;1.83;;;1.73;;
21886;SDS011;11108;49.988;8.182;2023-03-04T16:00:47;2.10;;;1.90;;
21886;SDS011;11108;49.988;8.182;2023-03-04T16:03:16;3.47;;;2.00;;
21886;SDS011;11108;49.988;8.182;2023-03-04T16:05:42;2.40;;;2.10;;
21886;SDS011;11108;49.988;8.182;2023-03-04T16:08:09;2.00;;;1.90;;
21886;SDS011;11108;49.988;8.182;2023-03-04T16:10:35;4.23;;;2.50;;
21886;SDS011;11108;49.988;8.182;2023-03-04T16:13:00;3.10;;;1.90;;
21886;SDS011;11108;49.988;8.182;2023-03-04T16:15:26;3.03;;;2.17;;
21886;SDS011;11108;49.988;8.182;2023-03-04T16:17:51;3.57;;;2.17;;
21886;SDS011;11108;49.988;8.182;2023-03-04T16:20:18;3.90;;;1.87;;
21886;SDS011;11108;49.988;8.182;2023-03-04T16:22:44;2.10;;;1.90;;
21886;SDS011;11108;49.988;8.182;2023-03-04T16:25:13;4.00;;;2.20;;
21886;SDS011;11108;49.988;8.182;2023-03-04T16:27:39;1.97;;;1.77;;